sensor_id;sensor_type;location;lat;lon;timestamp;P1;durP1;ratioP1;P2;durP2;ratioP2
54408;SDS011;40315;48.620;9.828;2023-04-22T00:01:37;9.77;;;7.40;;
54408;SDS011;40315;48.620;9.828;2023-04-22T00:04:04;8.45;;;6.68;;
54408;SDS011;40315;48.620;9.828;2023-04-22T00:06:33;9.23;;;6.88;;
54408;SDS011;40315;48.620;9.828;2023-04-22T00:09:00;8.15;;;7.22;;
54408;SDS011;40315;48.620;9.828;2023-04-22T00:11:27;7.90;;;6.35;;
54408;SDS011;40315;48.620;9.828;2023-04-22T00:13:54;8.90;;;6.75;;
54408;SDS011;40315;48.620;9.828;2023-04-22T00:16:21;8.68;;;6.10;;
54408;SDS011;40315;48.620;9.828;2023-04-22T00:18:51;8.63;;;6.30;;
54408;SDS011;40315;48.620;9.828;2023-04-22T00:21:18;9.15;;;6.60;;
54408;SDS011;40315;48.620;9.828;2023-04-22T00:23:46;7.40;;;6.60;;
54408;SDS011;40315;48.620;9.828;2023-04-22T00:26:13;7.47;;;5.93;;
54408;SDS011;40315;48.620;9.828;2023-04-22T00:28:42;8.93;;;5.65;;
54408;SDS011;40315;48.620;9.828;2023-04-22T00:31:09;7.75;;;6.00;;
54408;SDS011;40315;48.620;9.828;2023-04-22T00:33:36;7.82;;;5.53;;
54408;SDS011;40315;48.620;9.828;2023-04-22T00:36:07;6.22;;;5.05;;
54408;SDS011;40315;48.620;9.828;2023-04-22T00:38:34;6.63;;;5.30;;
54408;SDS011;40315;48.620;9.828;2023-04-22T00:41:03;6.72;;;5.78;;
54408;SDS011;40315;48.620;9.828;2023-04-22T00:43:31;8.63;;;6.38;;
54408;SDS011;40315;48.620;9.828;2023-04-22T00:45:58;8.10;;;5.55;;
54408;SDS011;40315;48.620;9.828;2023-04-22T00:48:26;6.80;;;6.10;;
54408;SDS011;40315;48.620;9.828;2023-04-22T00:50:57;7.13;;;5.15;;
54408;SDS011;40315;48.620;9.828;2023-04-22T00:53:25;7.38;;;5.90;;
54408;SDS011;40315;48.620;9.828;2023-04-22T00:55:52;6.22;;;5.10;;
54408;SDS011;40315;48.620;9.828;2023-04-22T00:58:20;7.15;;;5.40;;
54408;SDS011;40315;48.620;9.828;2023-04-22T01:03:30;7.82;;;5.32;;
54408;SDS011;40315;48.620;9.828;2023-04-22T01:05:59;5.72;;;4.93;;
54408;SDS011;40315;48.620;9.828;2023-04-22T01:08:28;5.88;;;5.28;;
54408;SDS011;40315;48.620;9.828;2023-04-22T01:10:55;5.78;;;5.03;;
54408;SDS011;40315;48.620;9.828;2023-04-22T01:13:24;6.25;;;5.18;;
54408;SDS011;40315;48.620;9.828;2023-04-22T01:15:52;7.85;;;5.30;;
54408;SDS011;40315;48.620;9.828;2023-04-22T01:18:21;8.18;;;5.60;;
54408;SDS011;40315;48.620;9.828;2023-04-22T01:20:48;5.80;;;4.55;;
54408;SDS011;40315;48.620;9.828;2023-04-22T01:23:19;5.75;;;4.82;;
54408;SDS011;40315;48.620;9.828;2023-04-22T01:25:47;5.53;;;4.80;;
54408;SDS011;40315;48.620;9.828;2023-04-22T01:28:15;5.80;;;3.95;;
54408;SDS011;40315;48.620;9.828;2023-04-22T01:30:42;5.60;;;4.25;;
54408;SDS011;40315;48.620;9.828;2023-04-22T01:33:12;4.72;;;4.18;;
54408;SDS011;40315;48.620;9.828;2023-04-22T01:35:41;4.80;;;4.15;;
54408;SDS011;40315;48.620;9.828;2023-04-22T01:38:08;4.55;;;4.10;;
54408;SDS011;40315;48.620;9.828;2023-04-22T01:40:40;6.30;;;3.92;;
54408;SDS011;40315;48.620;9.828;2023-04-22T01:43:07;4.75;;;4.35;;
54408;SDS011;40315;48.620;9.828;2023-04-22T01:52:19;5.68;;;4.20;;
54408;SDS011;40315;48.620;9.828;2023-04-22T01:54:46;4.47;;;4.07;;
54408;SDS011;40315;48.620;9.828;2023-04-22T01:57:15;5.75;;;3.63;;
54408;SDS011;40315;48.620;9.828;2023-04-22T01:59:43;5.38;;;3.90;;
54408;SDS011;40315;48.620;9.828;2023-04-22T02:02:09;4.70;;;4.00;;
54408;SDS011;40315;48.620;9.828;2023-04-22T02:04:36;4.50;;;3.90;;
54408;SDS011;40315;48.620;9.828;2023-04-22T02:07:04;4.47;;;3.67;;
54408;SDS011;40315;48.620;9.828;2023-04-22T02:09:33;4.40;;;3.90;;
54408;SDS011;40315;48.620;9.828;2023-04-22T02:12:03;5.15;;;4.43;;
54408;SDS011;40315;48.620;9.828;2023-04-22T02:14:31;5.65;;;5.10;;
54408;SDS011;40315;48.620;9.828;2023-04-22T02:17:01;6.05;;;5.13;;
54408;SDS011;40315;48.620;9.828;2023-04-22T02:19:29;6.20;;;5.45;;
54408;SDS011;40315;48.620;9.828;2023-04-22T02:21:56;6.63;;;5.00;;
54408;SDS011;40315;48.620;9.828;2023-04-22T02:24:23;5.97;;;4.90;;
54408;SDS011;40315;48.620;9.828;2023-04-22T02:26:50;6.50;;;4.53;;
54408;SDS011;40315;48.620;9.828;2023-04-22T02:29:18;5.03;;;4.10;;
54408;SDS011;40315;48.620;9.828;2023-04-22T02:31:47;5.93;;;4.78;;
54408;SDS011;40315;48.620;9.828;2023-04-22T02:34:14;5.72;;;4.72;;
54408;SDS011;40315;48.620;9.828;2023-04-22T02:36:41;5.10;;;4.40;;
54408;SDS011;40315;48.620;9.828;2023-04-22T02:39:08;5.65;;;4.85;;
54408;SDS011;40315;48.620;9.828;2023-04-22T02:41:36;5.82;;;4.53;;
54408;SDS011;40315;48.620;9.828;2023-04-22T02:44:03;6.80;;;4.53;;
54408;SDS011;40315;48.620;9.828;2023-04-22T02:46:31;4.80;;;4.30;;
54408;SDS011;40315;48.620;9.828;2023-04-22T02:48:59;4.90;;;3.88;;
54408;SDS011;40315;48.620;9.828;2023-04-22T02:51:26;6.35;;;4.45;;
54408;SDS011;40315;48.620;9.828;2023-04-22T02:53:53;4.47;;;3.70;;
54408;SDS011;40315;48.620;9.828;2023-04-22T02:56:20;4.60;;;3.83;;
54408;SDS011;40315;48.620;9.828;2023-04-22T02:58:47;5.47;;;4.05;;
54408;SDS011;40315;48.620;9.828;2023-04-22T03:01:14;4.15;;;3.75;;
54408;SDS011;40315;48.620;9.828;2023-04-22T03:03:42;7.05;;;4.97;;
54408;SDS011;40315;48.620;9.828;2023-04-22T03:06:15;8.27;;;5.40;;
54408;SDS011;40315;48.620;9.828;2023-04-22T03:08:42;7.80;;;5.90;;
54408;SDS011;40315;48.620;9.828;2023-04-22T03:11:09;7.60;;;6.20;;
54408;SDS011;40315;48.620;9.828;2023-04-22T03:13:41;7.43;;;6.20;;
54408;SDS011;40315;48.620;9.828;2023-04-22T03:16:08;7.22;;;5.80;;
54408;SDS011;40315;48.620;9.828;2023-04-22T03:18:36;8.45;;;6.13;;
54408;SDS011;40315;48.620;9.828;2023-04-22T03:21:03;7.93;;;6.18;;
54408;SDS011;40315;48.620;9.828;2023-04-22T03:23:32;8.55;;;6.22;;
54408;SDS011;40315;48.620;9.828;2023-04-22T03:26:00;8.40;;;6.40;;
54408;SDS011;40315;48.620;9.828;2023-04-22T03:28:27;8.70;;;6.95;;
54408;SDS011;40315;48.620;9.828;2023-04-22T03:30:54;7.80;;;6.75;;
54408;SDS011;40315;48.620;9.828;2023-04-22T03:33:21;7.72;;;6.40;;
54408;SDS011;40315;48.620;9.828;2023-04-22T03:35:56;9.63;;;6.03;;
54408;SDS011;40315;48.620;9.828;2023-04-22T03:38:23;8.93;;;6.18;;
54408;SDS011;40315;48.620;9.828;2023-04-22T03:40:53;7.43;;;5.93;;
54408;SDS011;40315;48.620;9.828;2023-04-22T03:43:37;7.60;;;5.65;;
54408;SDS011;40315;48.620;9.828;2023-04-22T03:46:07;8.15;;;5.60;;
54408;SDS011;40315;48.620;9.828;2023-04-22T03:48:38;7.28;;;5.75;;
54408;SDS011;40315;48.620;9.828;2023-04-22T03:51:10;6.78;;;5.85;;
54408;SDS011;40315;48.620;9.828;2023-04-22T03:53:39;6.65;;;5.95;;
54408;SDS011;40315;48.620;9.828;2023-04-22T03:56:09;9.60;;;6.18;;
54408;SDS011;40315;48.620;9.828;2023-04-22T03:58:42;6.88;;;5.90;;
54408;SDS011;40315;48.620;9.828;2023-04-22T04:01:11;8.10;;;6.20;;
54408;SDS011;40315;48.620;9.828;2023-04-22T04:03:42;9.15;;;6.60;;
54408;SDS011;40315;48.620;9.828;2023-04-22T04:06:10;8.63;;;5.70;;
54408;SDS011;40315;48.620;9.828;2023-04-22T04:08:37;8.55;;;6.40;;
54408;SDS011;40315;48.620;9.828;2023-04-22T04:11:06;7.05;;;6.32;;
54408;SDS011;40315;48.620;9.828;2023-04-22T04:13:35;9.25;;;6.10;;
54408;SDS011;40315;48.620;9.828;2023-04-22T04:16:18;8.40;;;6.30;;
54408;SDS011;40315;48.620;9.828;2023-04-22T04:18:51;8.55;;;6.43;;
54408;SDS011;40315;48.620;9.828;2023-04-22T04:21:20;9.43;;;6.40;;
54408;SDS011;40315;48.620;9.828;2023-04-22T04:23:50;8.95;;;6.75;;
54408;SDS011;40315;48.620;9.828;2023-04-22T04:26:22;7.75;;;6.43;;
54408;SDS011;40315;48.620;9.828;2023-04-22T04:28:56;8.30;;;6.50;;
54408;SDS011;40315;48.620;9.828;2023-04-22T04:31:25;7.03;;;5.78;;
54408;SDS011;40315;48.620;9.828;2023-04-22T04:33:55;7.47;;;5.90;;
54408;SDS011;40315;48.620;9.828;2023-04-22T04:36:23;7.63;;;6.07;;
54408;SDS011;40315;48.620;9.828;2023-04-22T04:38:55;6.82;;;6.00;;
54408;SDS011;40315;48.620;9.828;2023-04-22T04:41:22;9.13;;;6.20;;
54408;SDS011;40315;48.620;9.828;2023-04-22T04:43:51;7.78;;;6.07;;
54408;SDS011;40315;48.620;9.828;2023-04-22T04:46:40;9.73;;;6.75;;
54408;SDS011;40315;48.620;9.828;2023-04-22T04:49:08;7.93;;;5.97;;
54408;SDS011;40315;48.620;9.828;2023-04-22T04:51:45;7.53;;;5.68;;
54408;SDS011;40315;48.620;9.828;2023-04-22T04:54:12;6.65;;;5.75;;
54408;SDS011;40315;48.620;9.828;2023-04-22T04:56:40;7.43;;;5.60;;
54408;SDS011;40315;48.620;9.828;2023-04-22T04:59:08;7.70;;;5.72;;
54408;SDS011;40315;48.620;9.828;2023-04-22T05:01:37;7.85;;;5.10;;
54408;SDS011;40315;48.620;9.828;2023-04-22T05:04:08;6.65;;;5.63;;
54408;SDS011;40315;48.620;9.828;2023-04-22T05:06:38;6.18;;;5.47;;
54408;SDS011;40315;48.620;9.828;2023-04-22T05:09:05;10.93;;;5.38;;
54408;SDS011;40315;48.620;9.828;2023-04-22T05:11:34;6.80;;;5.85;;
54408;SDS011;40315;48.620;9.828;2023-04-22T05:14:08;6.85;;;5.57;;
54408;SDS011;40315;48.620;9.828;2023-04-22T05:16:40;8.45;;;5.97;;
54408;SDS011;40315;48.620;9.828;2023-04-22T05:19:08;8.60;;;5.40;;
54408;SDS011;40315;48.620;9.828;2023-04-22T05:21:35;6.20;;;5.43;;
54408;SDS011;40315;48.620;9.828;2023-04-22T05:24:03;8.30;;;5.70;;
54408;SDS011;40315;48.620;9.828;2023-04-22T05:26:30;7.30;;;5.47;;
54408;SDS011;40315;48.620;9.828;2023-04-22T05:28:59;8.10;;;5.75;;
54408;SDS011;40315;48.620;9.828;2023-04-22T05:31:26;6.55;;;5.60;;
54408;SDS011;40315;48.620;9.828;2023-04-22T05:33:54;6.55;;;5.40;;
54408;SDS011;40315;48.620;9.828;2023-04-22T05:36:22;8.13;;;5.78;;
54408;SDS011;40315;48.620;9.828;2023-04-22T05:38:49;8.27;;;6.03;;
54408;SDS011;40315;48.620;9.828;2023-04-22T05:41:16;6.78;;;5.65;;
54408;SDS011;40315;48.620;9.828;2023-04-22T05:43:44;7.55;;;5.35;;
54408;SDS011;40315;48.620;9.828;2023-04-22T05:46:15;6.88;;;5.10;;
54408;SDS011;40315;48.620;9.828;2023-04-22T05:48:44;6.82;;;5.60;;
54408;SDS011;40315;48.620;9.828;2023-04-22T05:51:32;6.97;;;5.68;;
54408;SDS011;40315;48.620;9.828;2023-04-22T05:54:00;7.95;;;5.72;;
54408;SDS011;40315;48.620;9.828;2023-04-22T05:56:28;7.43;;;5.82;;
54408;SDS011;40315;48.620;9.828;2023-04-22T05:58:55;6.07;;;5.30;;
54408;SDS011;40315;48.620;9.828;2023-04-22T06:01:23;7.07;;;5.45;;
54408;SDS011;40315;48.620;9.828;2023-04-22T06:03:57;7.13;;;5.07;;
54408;SDS011;40315;48.620;9.828;2023-04-22T06:06:25;6.18;;;4.88;;
54408;SDS011;40315;48.620;9.828;2023-04-22T06:08:53;5.53;;;4.75;;
54408;SDS011;40315;48.620;9.828;2023-04-22T06:11:20;6.20;;;5.10;;
54408;SDS011;40315;48.620;9.828;2023-04-22T06:13:47;6.72;;;5.03;;
54408;SDS011;40315;48.620;9.828;2023-04-22T06:16:18;6.15;;;5.20;;
54408;SDS011;40315;48.620;9.828;2023-04-22T06:18:45;6.15;;;4.95;;
54408;SDS011;40315;48.620;9.828;2023-04-22T06:21:13;7.15;;;5.88;;
54408;SDS011;40315;48.620;9.828;2023-04-22T06:23:41;6.80;;;5.45;;
54408;SDS011;40315;48.620;9.828;2023-04-22T06:26:09;6.32;;;5.65;;
54408;SDS011;40315;48.620;9.828;2023-04-22T06:28:36;8.60;;;6.15;;
54408;SDS011;40315;48.620;9.828;2023-04-22T06:31:09;8.43;;;6.20;;
54408;SDS011;40315;48.620;9.828;2023-04-22T06:33:36;7.68;;;5.68;;
54408;SDS011;40315;48.620;9.828;2023-04-22T06:36:04;7.60;;;5.50;;
54408;SDS011;40315;48.620;9.828;2023-04-22T06:38:33;6.75;;;5.43;;
54408;SDS011;40315;48.620;9.828;2023-04-22T06:41:22;7.20;;;5.45;;
54408;SDS011;40315;48.620;9.828;2023-04-22T06:43:52;7.20;;;5.10;;
54408;SDS011;40315;48.620;9.828;2023-04-22T06:46:37;7.28;;;5.30;;
54408;SDS011;40315;48.620;9.828;2023-04-22T06:49:35;5.30;;;4.22;;
54408;SDS011;40315;48.620;9.828;2023-04-22T06:52:24;5.95;;;5.05;;
54408;SDS011;40315;48.620;9.828;2023-04-22T06:54:54;5.20;;;4.70;;
54408;SDS011;40315;48.620;9.828;2023-04-22T06:57:25;7.13;;;4.57;;
54408;SDS011;40315;48.620;9.828;2023-04-22T06:59:52;6.35;;;5.13;;
54408;SDS011;40315;48.620;9.828;2023-04-22T07:02:21;5.70;;;5.10;;
54408;SDS011;40315;48.620;9.828;2023-04-22T07:04:48;5.82;;;4.80;;
54408;SDS011;40315;48.620;9.828;2023-04-22T07:07:17;8.00;;;4.63;;
54408;SDS011;40315;48.620;9.828;2023-04-22T07:09:44;5.57;;;4.20;;
54408;SDS011;40315;48.620;9.828;2023-04-22T07:12:12;6.03;;;4.82;;
54408;SDS011;40315;48.620;9.828;2023-04-22T07:14:42;6.50;;;4.55;;
54408;SDS011;40315;48.620;9.828;2023-04-22T07:17:10;4.78;;;4.30;;
54408;SDS011;40315;48.620;9.828;2023-04-22T07:19:37;6.47;;;4.35;;
54408;SDS011;40315;48.620;9.828;2023-04-22T07:22:04;5.38;;;4.35;;
54408;SDS011;40315;48.620;9.828;2023-04-22T07:24:32;4.47;;;3.95;;
54408;SDS011;40315;48.620;9.828;2023-04-22T07:26:59;4.05;;;3.65;;
54408;SDS011;40315;48.620;9.828;2023-04-22T07:29:26;4.13;;;3.72;;
54408;SDS011;40315;48.620;9.828;2023-04-22T07:31:54;4.45;;;3.97;;
54408;SDS011;40315;48.620;9.828;2023-04-22T07:34:24;3.70;;;3.25;;
54408;SDS011;40315;48.620;9.828;2023-04-22T07:36:51;3.90;;;3.17;;
54408;SDS011;40315;48.620;9.828;2023-04-22T07:39:18;3.38;;;2.92;;
54408;SDS011;40315;48.620;9.828;2023-04-22T07:41:45;3.55;;;2.78;;
54408;SDS011;40315;48.620;9.828;2023-04-22T07:44:12;3.40;;;3.10;;
54408;SDS011;40315;48.620;9.828;2023-04-22T07:46:42;3.00;;;2.65;;
54408;SDS011;40315;48.620;9.828;2023-04-22T07:49:10;2.55;;;2.35;;
54408;SDS011;40315;48.620;9.828;2023-04-22T07:51:38;3.33;;;2.70;;
54408;SDS011;40315;48.620;9.828;2023-04-22T07:54:05;4.40;;;3.58;;
54408;SDS011;40315;48.620;9.828;2023-04-22T07:56:32;3.53;;;2.83;;
54408;SDS011;40315;48.620;9.828;2023-04-22T07:59:01;2.97;;;2.67;;
54408;SDS011;40315;48.620;9.828;2023-04-22T08:01:31;3.20;;;2.90;;
54408;SDS011;40315;48.620;9.828;2023-04-22T08:03:58;3.28;;;2.95;;
54408;SDS011;40315;48.620;9.828;2023-04-22T08:06:26;4.57;;;3.20;;
54408;SDS011;40315;48.620;9.828;2023-04-22T08:08:53;2.83;;;2.55;;
54408;SDS011;40315;48.620;9.828;2023-04-22T08:11:20;2.90;;;2.70;;
54408;SDS011;40315;48.620;9.828;2023-04-22T08:13:49;2.95;;;2.60;;
54408;SDS011;40315;48.620;9.828;2023-04-22T08:16:16;2.78;;;2.58;;
54408;SDS011;40315;48.620;9.828;2023-04-22T08:18:44;4.68;;;2.67;;
54408;SDS011;40315;48.620;9.828;2023-04-22T08:21:10;2.50;;;2.20;;
54408;SDS011;40315;48.620;9.828;2023-04-22T08:23:42;4.72;;;2.70;;
54408;SDS011;40315;48.620;9.828;2023-04-22T08:26:09;2.65;;;2.10;;
54408;SDS011;40315;48.620;9.828;2023-04-22T08:28:39;4.80;;;2.38;;
54408;SDS011;40315;48.620;9.828;2023-04-22T08:31:06;4.65;;;2.75;;
54408;SDS011;40315;48.620;9.828;2023-04-22T08:33:38;3.45;;;2.40;;
54408;SDS011;40315;48.620;9.828;2023-04-22T08:36:06;2.25;;;2.05;;
54408;SDS011;40315;48.620;9.828;2023-04-22T08:38:34;2.30;;;2.10;;
54408;SDS011;40315;48.620;9.828;2023-04-22T08:41:02;2.28;;;2.00;;
54408;SDS011;40315;48.620;9.828;2023-04-22T08:43:33;3.03;;;2.20;;
54408;SDS011;40315;48.620;9.828;2023-04-22T08:46:01;2.50;;;2.30;;
54408;SDS011;40315;48.620;9.828;2023-04-22T08:48:28;2.90;;;2.13;;
54408;SDS011;40315;48.620;9.828;2023-04-22T08:50:55;2.10;;;1.92;;
54408;SDS011;40315;48.620;9.828;2023-04-22T08:53:23;2.22;;;1.85;;
54408;SDS011;40315;48.620;9.828;2023-04-22T08:55:50;2.58;;;2.00;;
54408;SDS011;40315;48.620;9.828;2023-04-22T08:58:21;2.33;;;1.90;;
54408;SDS011;40315;48.620;9.828;2023-04-22T09:00:48;2.13;;;1.80;;
54408;SDS011;40315;48.620;9.828;2023-04-22T09:03:16;2.15;;;1.50;;
54408;SDS011;40315;48.620;9.828;2023-04-22T09:05:43;4.95;;;1.70;;
54408;SDS011;40315;48.620;9.828;2023-04-22T09:08:12;2.40;;;1.70;;
54408;SDS011;40315;48.620;9.828;2023-04-22T09:10:42;1.95;;;1.52;;
54408;SDS011;40315;48.620;9.828;2023-04-22T09:13:09;2.55;;;1.67;;
54408;SDS011;40315;48.620;9.828;2023-04-22T09:15:40;2.40;;;1.80;;
54408;SDS011;40315;48.620;9.828;2023-04-22T09:18:08;2.97;;;1.50;;
54408;SDS011;40315;48.620;9.828;2023-04-22T09:20:35;3.50;;;1.40;;
54408;SDS011;40315;48.620;9.828;2023-04-22T09:23:07;2.72;;;1.60;;
54408;SDS011;40315;48.620;9.828;2023-04-22T09:25:34;2.95;;;1.40;;
54408;SDS011;40315;48.620;9.828;2023-04-22T09:28:01;2.28;;;1.80;;
54408;SDS011;40315;48.620;9.828;2023-04-22T09:30:29;4.80;;;1.92;;
54408;SDS011;40315;48.620;9.828;2023-04-22T09:32:59;2.90;;;1.70;;
54408;SDS011;40315;48.620;9.828;2023-04-22T09:35:28;4.63;;;1.73;;
54408;SDS011;40315;48.620;9.828;2023-04-22T09:37:56;3.10;;;1.83;;
54408;SDS011;40315;48.620;9.828;2023-04-22T09:40:24;3.03;;;2.13;;
54408;SDS011;40315;48.620;9.828;2023-04-22T09:42:52;2.28;;;1.77;;
54408;SDS011;40315;48.620;9.828;2023-04-22T09:45:25;4.53;;;2.08;;
54408;SDS011;40315;48.620;9.828;2023-04-22T09:47:53;3.22;;;1.70;;
54408;SDS011;40315;48.620;9.828;2023-04-22T09:50:25;4.85;;;1.80;;
54408;SDS011;40315;48.620;9.828;2023-04-22T09:52:54;2.05;;;1.83;;
54408;SDS011;40315;48.620;9.828;2023-04-22T09:55:22;2.17;;;1.90;;
54408;SDS011;40315;48.620;9.828;2023-04-22T09:57:51;3.53;;;1.90;;
54408;SDS011;40315;48.620;9.828;2023-04-22T10:00:18;2.83;;;1.48;;
54408;SDS011;40315;48.620;9.828;2023-04-22T10:02:46;3.03;;;1.50;;
54408;SDS011;40315;48.620;9.828;2023-04-22T10:05:13;2.38;;;1.60;;
54408;SDS011;40315;48.620;9.828;2023-04-22T10:07:42;2.75;;;1.65;;
54408;SDS011;40315;48.620;9.828;2023-04-22T10:10:10;2.30;;;1.67;;
54408;SDS011;40315;48.620;9.828;2023-04-22T10:12:37;3.47;;;1.70;;
54408;SDS011;40315;48.620;9.828;2023-04-22T10:15:04;2.08;;;1.48;;
54408;SDS011;40315;48.620;9.828;2023-04-22T10:17:33;1.48;;;1.38;;
54408;SDS011;40315;48.620;9.828;2023-04-22T10:20:04;1.63;;;1.52;;
54408;SDS011;40315;48.620;9.828;2023-04-22T10:22:38;2.47;;;1.35;;
54408;SDS011;40315;48.620;9.828;2023-04-22T10:25:12;1.65;;;1.20;;
54408;SDS011;40315;48.620;9.828;2023-04-22T10:27:51;5.45;;;1.20;;
54408;SDS011;40315;48.620;9.828;2023-04-22T10:30:25;2.33;;;1.30;;
54408;SDS011;40315;48.620;9.828;2023-04-22T10:32:53;2.63;;;1.42;;
54408;SDS011;40315;48.620;9.828;2023-04-22T10:35:25;2.47;;;1.20;;
54408;SDS011;40315;48.620;9.828;2023-04-22T10:37:55;2.22;;;1.20;;
54408;SDS011;40315;48.620;9.828;2023-04-22T10:40:24;2.28;;;1.60;;
54408;SDS011;40315;48.620;9.828;2023-04-22T10:42:57;1.60;;;1.08;;
54408;SDS011;40315;48.620;9.828;2023-04-22T10:45:27;1.95;;;1.25;;
54408;SDS011;40315;48.620;9.828;2023-04-22T10:48:01;1.38;;;1.00;;
54408;SDS011;40315;48.620;9.828;2023-04-22T10:50:30;1.60;;;1.27;;
54408;SDS011;40315;48.620;9.828;2023-04-22T10:52:58;1.73;;;1.08;;
54408;SDS011;40315;48.620;9.828;2023-04-22T10:58:19;1.35;;;1.05;;
54408;SDS011;40315;48.620;9.828;2023-04-22T11:00:50;3.50;;;1.17;;
54408;SDS011;40315;48.620;9.828;2023-04-22T11:03:24;1.95;;;1.08;;
54408;SDS011;40315;48.620;9.828;2023-04-22T11:08:44;6.18;;;1.25;;
54408;SDS011;40315;48.620;9.828;2023-04-22T11:11:14;2.33;;;1.33;;
54408;SDS011;40315;48.620;9.828;2023-04-22T11:13:45;2.38;;;1.15;;
54408;SDS011;40315;48.620;9.828;2023-04-22T11:16:14;1.65;;;1.27;;
54408;SDS011;40315;48.620;9.828;2023-04-22T11:18:42;1.45;;;1.00;;
54408;SDS011;40315;48.620;9.828;2023-04-22T11:21:14;3.60;;;1.13;;
54408;SDS011;40315;48.620;9.828;2023-04-22T11:23:48;2.83;;;1.02;;
54408;SDS011;40315;48.620;9.828;2023-04-22T11:26:18;2.58;;;1.10;;
54408;SDS011;40315;48.620;9.828;2023-04-22T11:28:59;1.30;;;1.05;;
54408;SDS011;40315;48.620;9.828;2023-04-22T11:31:26;1.20;;;1.00;;
54408;SDS011;40315;48.620;9.828;2023-04-22T11:33:53;2.33;;;1.00;;
54408;SDS011;40315;48.620;9.828;2023-04-22T11:36:26;1.20;;;1.10;;
54408;SDS011;40315;48.620;9.828;2023-04-22T11:38:53;1.70;;;1.13;;
54408;SDS011;40315;48.620;9.828;2023-04-22T11:41:26;1.08;;;0.98;;
54408;SDS011;40315;48.620;9.828;2023-04-22T11:43:54;1.20;;;1.08;;
54408;SDS011;40315;48.620;9.828;2023-04-22T11:46:26;1.17;;;1.08;;
54408;SDS011;40315;48.620;9.828;2023-04-22T11:49:09;1.40;;;1.00;;
54408;SDS011;40315;48.620;9.828;2023-04-22T11:51:49;1.38;;;0.95;;
54408;SDS011;40315;48.620;9.828;2023-04-22T11:54:27;1.33;;;1.20;;
54408;SDS011;40315;48.620;9.828;2023-04-22T11:57:00;0.93;;;0.88;;
54408;SDS011;40315;48.620;9.828;2023-04-22T11:59:31;9.93;;;1.40;;
54408;SDS011;40315;48.620;9.828;2023-04-22T12:01:58;2.35;;;1.15;;
54408;SDS011;40315;48.620;9.828;2023-04-22T12:04:25;2.35;;;1.10;;
54408;SDS011;40315;48.620;9.828;2023-04-22T12:06:52;1.88;;;1.20;;
54408;SDS011;40315;48.620;9.828;2023-04-22T12:09:22;5.55;;;1.50;;
54408;SDS011;40315;48.620;9.828;2023-04-22T12:11:50;3.97;;;1.30;;
54408;SDS011;40315;48.620;9.828;2023-04-22T12:14:19;1.52;;;1.42;;
54408;SDS011;40315;48.620;9.828;2023-04-22T12:16:46;1.23;;;1.10;;
54408;SDS011;40315;48.620;9.828;2023-04-22T12:19:13;2.17;;;1.50;;
54408;SDS011;40315;48.620;9.828;2023-04-22T12:21:40;2.58;;;1.48;;
54408;SDS011;40315;48.620;9.828;2023-04-22T12:24:08;1.95;;;1.25;;
54408;SDS011;40315;48.620;9.828;2023-04-22T12:26:35;1.50;;;1.40;;
54408;SDS011;40315;48.620;9.828;2023-04-22T12:29:04;3.15;;;1.65;;
54408;SDS011;40315;48.620;9.828;2023-04-22T12:31:32;1.58;;;1.48;;
54408;SDS011;40315;48.620;9.828;2023-04-22T12:33:59;2.63;;;1.40;;
54408;SDS011;40315;48.620;9.828;2023-04-22T12:36:26;1.90;;;1.33;;
54408;SDS011;40315;48.620;9.828;2023-04-22T12:38:54;3.15;;;1.50;;
54408;SDS011;40315;48.620;9.828;2023-04-22T12:41:24;4.68;;;1.60;;
54408;SDS011;40315;48.620;9.828;2023-04-22T12:43:50;3.22;;;1.38;;
54408;SDS011;40315;48.620;9.828;2023-04-22T12:46:19;17.65;;;5.05;;
54408;SDS011;40315;48.620;9.828;2023-04-22T12:48:47;1.67;;;1.50;;
54408;SDS011;40315;48.620;9.828;2023-04-22T12:51:14;1.80;;;1.42;;
54408;SDS011;40315;48.620;9.828;2023-04-22T12:53:41;4.38;;;1.60;;
54408;SDS011;40315;48.620;9.828;2023-04-22T12:56:08;3.80;;;1.83;;
54408;SDS011;40315;48.620;9.828;2023-04-22T12:58:35;3.53;;;1.77;;
54408;SDS011;40315;48.620;9.828;2023-04-22T13:01:05;3.05;;;1.55;;
54408;SDS011;40315;48.620;9.828;2023-04-22T13:03:34;3.78;;;1.58;;
54408;SDS011;40315;48.620;9.828;2023-04-22T13:06:04;1.70;;;1.40;;
54408;SDS011;40315;48.620;9.828;2023-04-22T13:08:32;1.70;;;1.55;;
54408;SDS011;40315;48.620;9.828;2023-04-22T13:10:59;1.73;;;1.50;;
54408;SDS011;40315;48.620;9.828;2023-04-22T13:13:26;2.40;;;1.65;;
54408;SDS011;40315;48.620;9.828;2023-04-22T13:15:53;1.33;;;1.23;;
54408;SDS011;40315;48.620;9.828;2023-04-22T13:18:21;2.17;;;1.40;;
54408;SDS011;40315;48.620;9.828;2023-04-22T13:20:50;1.85;;;1.23;;
54408;SDS011;40315;48.620;9.828;2023-04-22T13:23:20;3.20;;;1.63;;
54408;SDS011;40315;48.620;9.828;2023-04-22T13:25:50;2.83;;;1.38;;
54408;SDS011;40315;48.620;9.828;2023-04-22T13:28:20;3.08;;;1.58;;
54408;SDS011;40315;48.620;9.828;2023-04-22T13:30:47;1.50;;;1.40;;
54408;SDS011;40315;48.620;9.828;2023-04-22T13:33:14;1.88;;;1.67;;
54408;SDS011;40315;48.620;9.828;2023-04-22T13:35:44;2.15;;;1.40;;
54408;SDS011;40315;48.620;9.828;2023-04-22T13:38:11;1.88;;;1.55;;
54408;SDS011;40315;48.620;9.828;2023-04-22T13:40:39;3.35;;;1.63;;
54408;SDS011;40315;48.620;9.828;2023-04-22T13:43:10;2.50;;;1.42;;
54408;SDS011;40315;48.620;9.828;2023-04-22T13:45:40;2.35;;;1.58;;
54408;SDS011;40315;48.620;9.828;2023-04-22T13:48:07;2.00;;;1.40;;
54408;SDS011;40315;48.620;9.828;2023-04-22T13:50:34;2.28;;;1.50;;
54408;SDS011;40315;48.620;9.828;2023-04-22T13:53:01;7.80;;;1.52;;
54408;SDS011;40315;48.620;9.828;2023-04-22T13:55:29;1.42;;;1.30;;
54408;SDS011;40315;48.620;9.828;2023-04-22T13:58:00;3.20;;;1.20;;
54408;SDS011;40315;48.620;9.828;2023-04-22T14:00:27;1.80;;;1.25;;
54408;SDS011;40315;48.620;9.828;2023-04-22T14:02:54;1.52;;;1.40;;
54408;SDS011;40315;48.620;9.828;2023-04-22T14:05:21;2.55;;;1.60;;
54408;SDS011;40315;48.620;9.828;2023-04-22T14:07:48;1.50;;;1.27;;
54408;SDS011;40315;48.620;9.828;2023-04-22T14:10:17;8.65;;;2.17;;
54408;SDS011;40315;48.620;9.828;2023-04-22T14:12:46;1.77;;;1.40;;
54408;SDS011;40315;48.620;9.828;2023-04-22T14:15:17;2.97;;;1.60;;
54408;SDS011;40315;48.620;9.828;2023-04-22T14:17:44;2.72;;;1.77;;
54408;SDS011;40315;48.620;9.828;2023-04-22T14:20:13;1.88;;;1.40;;
54408;SDS011;40315;48.620;9.828;2023-04-22T14:22:40;2.15;;;1.13;;
54408;SDS011;40315;48.620;9.828;2023-04-22T14:25:10;1.73;;;1.60;;
54408;SDS011;40315;48.620;9.828;2023-04-22T14:27:37;1.38;;;1.27;;
54408;SDS011;40315;48.620;9.828;2023-04-22T14:30:04;1.52;;;1.42;;
54408;SDS011;40315;48.620;9.828;2023-04-22T14:32:34;1.60;;;1.50;;
54408;SDS011;40315;48.620;9.828;2023-04-22T14:35:01;2.22;;;1.30;;
54408;SDS011;40315;48.620;9.828;2023-04-22T14:37:29;5.35;;;1.42;;
54408;SDS011;40315;48.620;9.828;2023-04-22T14:39:56;1.63;;;1.25;;
54408;SDS011;40315;48.620;9.828;2023-04-22T14:42:23;3.10;;;1.77;;
54408;SDS011;40315;48.620;9.828;2023-04-22T14:44:51;4.03;;;1.20;;
54408;SDS011;40315;48.620;9.828;2023-04-22T14:47:18;2.17;;;1.13;;
54408;SDS011;40315;48.620;9.828;2023-04-22T14:49:46;1.77;;;1.38;;
54408;SDS011;40315;48.620;9.828;2023-04-22T14:52:13;3.25;;;1.60;;
54408;SDS011;40315;48.620;9.828;2023-04-22T14:54:40;1.88;;;1.50;;
54408;SDS011;40315;48.620;9.828;2023-04-22T14:57:07;2.78;;;1.17;;
54408;SDS011;40315;48.620;9.828;2023-04-22T14:59:34;2.17;;;1.40;;
54408;SDS011;40315;48.620;9.828;2023-04-22T15:02:01;1.48;;;1.38;;
54408;SDS011;40315;48.620;9.828;2023-04-22T15:04:29;2.50;;;1.45;;
54408;SDS011;40315;48.620;9.828;2023-04-22T15:06:57;2.33;;;1.30;;
54408;SDS011;40315;48.620;9.828;2023-04-22T15:09:25;8.63;;;2.00;;
54408;SDS011;40315;48.620;9.828;2023-04-22T15:11:52;2.50;;;1.40;;
54408;SDS011;40315;48.620;9.828;2023-04-22T15:14:20;6.55;;;3.42;;